PWSweather.com
Personal Weather Stations
Station Observations
KNVELKO7
Elko, NV 89801

Elko, NV 89801

Lat: 40.963233, Lon: -115.592836

Elevation: 5230

Station Type: WS-2812

Latest ConditionsUpdated 7:55:43 PM PDT Wednesday, Oct 22, 2014
Currently Today's Max Today's Min Today's Average
Temperature 50.0°F10.0°C 65.9°F18.8°C 21.6°F-5.8°C 43.1°F6.2°C
Dew Point 20.5°F-6.4°C 34.8°F1.6°C 12.2°F-11.0°C 22.1°F-5.5°C
Winds 2.7 mph 4.3 kmh 11.6 mph WSW18.7 kmh WSW - 2.4 mph 3.9 kmh
Wind Gusts 2.7 mph4.3 kmh 15.7 mph25.3 kmh - -
Humidity 31% 71% 25% 47%
Pressure 30.09 in1019.0 mb 30.18 in1022.0 mb 30.09 in1019.0 mb -
Hour Temp Dew Point Humidity Winds Wind Gusts Pressure Precip Precip Rate Daily Precip Total
07:55 PM 50.0°F10.0°C 20.5°F-6.4°C 31% 2.7 mph 4.3 kmh 2.7 mph4.3 kmh 30.09 in1019.0 mb 0.00 in0.0 mm 0.00 in/hr0.0 mm/hr 0.00 in0.0 mm
07:50 PM 50.9°F10.5°C 20.6°F-6.3°C 30% 1.0 mph N1.6 kmh N 2.5 mph4.0 kmh 30.09 in1019.0 mb 0.00 in0.0 mm 0.00 in/hr0.0 mm/hr 0.00 in0.0 mm
07:45 PM 51.8°F11.0°C 22.2°F-5.4°C 31% 1.1 mph NNE1.8 kmh NNE 2.0 mph3.2 kmh 30.09 in1019.0 mb 0.00 in0.0 mm 0.00 in/hr0.0 mm/hr 0.00 in0.0 mm
07:40 PM 51.8°F11.0°C 22.2°F-5.4°C 31% 1.1 mph NE1.8 kmh NE 4.3 mph6.9 kmh 30.09 in1019.0 mb 0.00 in0.0 mm 0.00 in/hr0.0 mm/hr 0.00 in0.0 mm
07:35 PM 51.7°F10.9°C 22.0°F-5.6°C 31% 1.1 mph NE1.8 kmh NE 6.0 mph9.7 kmh 30.09 in1019.0 mb 0.00 in0.0 mm 0.00 in/hr0.0 mm/hr 0.00 in0.0 mm
07:30 PM 51.5°F10.8°C 21.8°F-5.7°C 31% 5.6 mph NNE9.0 kmh NNE 6.0 mph9.7 kmh 30.09 in1019.0 mb 0.00 in0.0 mm 0.00 in/hr0.0 mm/hr 0.00 in0.0 mm
07:25 PM 51.8°F11.0°C 22.2°F-5.4°C 31% 4.7 mph N7.6 kmh N 5.4 mph8.7 kmh 30.09 in1019.0 mb 0.00 in0.0 mm 0.00 in/hr0.0 mm/hr 0.00 in0.0 mm
07:20 PM 52.0°F11.1°C 21.6°F-5.8°C 30% 1.9 mph NNE3.1 kmh NNE 2.7 mph4.3 kmh 30.10 in1019.3 mb 0.00 in0.0 mm 0.00 in/hr0.0 mm/hr 0.00 in0.0 mm
07:15 PM 52.0°F11.1°C 21.6°F-5.8°C 30% 2.2 mph 3.5 kmh 2.2 mph3.5 kmh 30.10 in1019.3 mb 0.00 in0.0 mm 0.00 in/hr0.0 mm/hr 0.00 in0.0 mm
07:10 PM 52.0°F11.1°C 21.6°F-5.8°C 30% 0.9 mph NE1.4 kmh NE 3.8 mph6.1 kmh 30.09 in1019.0 mb 0.00 in0.0 mm 0.00 in/hr0.0 mm/hr 0.00 in0.0 mm
07:05 PM 52.4°F11.3°C 21.9°F-5.6°C 30% 2.5 mph 4.0 kmh 3.8 mph6.1 kmh 30.09 in1019.0 mb 0.00 in0.0 mm 0.00 in/hr0.0 mm/hr 0.00 in0.0 mm
07:00 PM 53.3°F11.8°C 22.7°F-5.2°C 30% 3.1 mph 5.0 kmh 3.4 mph5.5 kmh 30.09 in1019.0 mb 0.00 in0.0 mm 0.00 in/hr0.0 mm/hr 0.00 in0.0 mm
06:55 PM 53.6°F12.0°C 23.0°F-5.0°C 30% 0.6 mph ENE1.0 kmh ENE 1.3 mph2.1 kmh 30.09 in1019.0 mb 0.00 in0.0 mm 0.00 in/hr0.0 mm/hr 0.00 in0.0 mm
06:50 PM 54.0°F12.2°C 22.4°F-5.3°C 29% 0.4 mph E0.6 kmh E 2.2 mph3.5 kmh 30.09 in1019.0 mb 0.00 in0.0 mm 0.00 in/hr0.0 mm/hr 0.00 in0.0 mm
06:45 PM 54.4°F12.4°C 22.7°F-5.2°C 29% 1.9 mph E3.1 kmh E 2.9 mph4.7 kmh 30.09 in1019.0 mb 0.00 in0.0 mm 0.00 in/hr0.0 mm/hr 0.00 in0.0 mm
06:40 PM 54.9°F12.7°C 23.1°F-4.9°C 29% 1.9 mph E3.1 kmh E 3.4 mph5.5 kmh 30.09 in1019.0 mb 0.00 in0.0 mm 0.00 in/hr0.0 mm/hr 0.00 in0.0 mm
06:35 PM 55.4°F13.0°C 23.6°F-4.7°C 29% 3.0 mph E4.8 kmh E 3.4 mph5.5 kmh 30.09 in1019.0 mb 0.00 in0.0 mm 0.00 in/hr0.0 mm/hr 0.00 in0.0 mm
06:30 PM 56.0°F13.3°C 23.0°F-5.0°C 28% 1.1 mph E1.8 kmh E 2.0 mph3.2 kmh 30.09 in1019.0 mb 0.00 in0.0 mm 0.00 in/hr0.0 mm/hr 0.00 in0.0 mm
06:25 PM 56.3°F13.5°C 23.4°F-4.8°C 28% 1.7 mph SE2.7 kmh SE 2.5 mph4.0 kmh 30.09 in1019.0 mb 0.00 in0.0 mm 0.00 in/hr0.0 mm/hr 0.00 in0.0 mm
06:20 PM 56.7°F13.7°C 23.8°F-4.6°C 28% 1.7 mph ESE2.7 kmh ESE 5.6 mph9.0 kmh 30.09 in1019.0 mb 0.00 in0.0 mm 0.00 in/hr0.0 mm/hr 0.00 in0.0 mm
06:15 PM 57.4°F14.1°C 24.4°F-4.2°C 28% 4.3 mph E6.9 kmh E 5.6 mph9.0 kmh 30.09 in1019.0 mb 0.00 in0.0 mm 0.00 in/hr0.0 mm/hr 0.00 in0.0 mm
06:10 PM 58.9°F14.9°C 24.7°F-4.1°C 27% 3.9 mph ENE6.3 kmh ENE 4.0 mph6.4 kmh 30.09 in1019.0 mb 0.00 in0.0 mm 0.00 in/hr0.0 mm/hr 0.00 in0.0 mm
06:05 PM 60.1°F15.6°C 25.8°F-3.4°C 27% 3.3 mph E5.3 kmh E 3.4 mph5.5 kmh 30.09 in1019.0 mb 0.00 in0.0 mm 0.00 in/hr0.0 mm/hr 0.00 in0.0 mm
06:00 PM 60.8°F16.0°C 24.4°F-4.2°C 25% 0.4 mph SE0.6 kmh SE 0.4 mph0.6 kmh 30.09 in1019.0 mb 0.00 in0.0 mm 0.00 in/hr0.0 mm/hr 0.00 in0.0 mm
05:54 PM 61.4°F16.3°C 24.8°F-4.0°C 25% Calm Calm -- 30.09 in1019.0 mb 0.00 in0.0 mm 0.00 in/hr0.0 mm/hr 0.00 in0.0 mm
05:50 PM 61.9°F16.6°C 25.3°F-3.7°C 25% Calm Calm -- 30.09 in1019.0 mb 0.00 in0.0 mm 0.00 in/hr0.0 mm/hr 0.00 in0.0 mm
05:45 PM 62.3°F16.8°C 25.7°F-3.5°C 25% Calm Calm 0.7 mph1.1 kmh 30.09 in1019.0 mb 0.00 in0.0 mm 0.00 in/hr0.0 mm/hr 0.00 in0.0 mm
05:40 PM 62.6°F17.0°C 25.9°F-3.4°C 25% Calm Calm 2.2 mph3.5 kmh 30.10 in1019.3 mb 0.00 in0.0 mm 0.00 in/hr0.0 mm/hr 0.00 in0.0 mm
05:35 PM 63.0°F17.2°C 26.2°F-3.2°C 25% 0.9 mph SW1.4 kmh SW 2.2 mph3.5 kmh 30.09 in1019.0 mb 0.00 in0.0 mm 0.00 in/hr0.0 mm/hr 0.00 in0.0 mm
05:30 PM 63.4°F17.4°C 26.6°F-3.0°C 25% Calm Calm -- 30.09 in1019.0 mb 0.00 in0.0 mm 0.00 in/hr0.0 mm/hr 0.00 in0.0 mm
05:25 PM 63.5°F17.5°C 27.6°F-2.4°C 26% Calm Calm -- 30.09 in1019.0 mb 0.00 in0.0 mm 0.00 in/hr0.0 mm/hr 0.00 in0.0 mm
05:20 PM 63.7°F17.6°C 27.8°F-2.3°C 26% Calm Calm 0.4 mph0.6 kmh 30.09 in1019.0 mb 0.00 in0.0 mm 0.00 in/hr0.0 mm/hr 0.00 in0.0 mm
05:15 PM 63.7°F17.6°C 27.8°F-2.3°C 26% 0.4 mph SW0.6 kmh SW 2.5 mph4.0 kmh 30.09 in1019.0 mb 0.00 in0.0 mm 0.00 in/hr0.0 mm/hr 0.00 in0.0 mm
05:10 PM 64.1°F17.8°C 28.2°F-2.1°C 26% 1.3 mph SW2.1 kmh SW 3.1 mph5.0 kmh 30.09 in1019.0 mb 0.00 in0.0 mm 0.00 in/hr0.0 mm/hr 0.00 in0.0 mm
05:05 PM 64.4°F18.0°C 28.4°F-2.0°C 26% 3.0 mph SW4.8 kmh SW 4.5 mph7.2 kmh 30.09 in1019.0 mb 0.00 in0.0 mm 0.00 in/hr0.0 mm/hr 0.00 in0.0 mm
05:00 PM 64.4°F18.0°C 28.4°F-2.0°C 26% 3.2 mph SW5.1 kmh SW 4.9 mph7.9 kmh 30.09 in1019.0 mb 0.00 in0.0 mm 0.00 in/hr0.0 mm/hr 0.00 in0.0 mm
04:54 PM 64.6°F18.1°C 28.6°F-1.9°C 26% 3.6 mph SW5.8 kmh SW 4.9 mph7.9 kmh 30.09 in1019.0 mb 0.00 in0.0 mm 0.00 in/hr0.0 mm/hr 0.00 in0.0 mm
04:49 PM 64.4°F18.0°C 28.4°F-2.0°C 26% 3.3 mph SW5.3 kmh SW 4.3 mph6.9 kmh 30.09 in1019.0 mb 0.00 in0.0 mm 0.00 in/hr0.0 mm/hr 0.00 in0.0 mm
04:44 PM 64.4°F18.0°C 28.4°F-2.0°C 26% 2.1 mph WSW3.4 kmh WSW 3.6 mph5.8 kmh 30.09 in1019.0 mb 0.00 in0.0 mm 0.00 in/hr0.0 mm/hr 0.00 in0.0 mm
04:39 PM 64.3°F17.9°C 28.3°F-2.1°C 26% 2.0 mph SW3.2 kmh SW 3.6 mph5.8 kmh 30.09 in1019.0 mb 0.00 in0.0 mm 0.00 in/hr0.0 mm/hr 0.00 in0.0 mm
04:34 PM 64.4°F18.0°C 28.4°F-2.0°C 26% 3.5 mph SSW5.6 kmh SSW 6.3 mph10.1 kmh 30.09 in1019.0 mb 0.00 in0.0 mm 0.00 in/hr0.0 mm/hr 0.00 in0.0 mm
04:29 PM 64.8°F18.2°C 28.7°F-1.8°C 26% 4.3 mph SSW6.9 kmh SSW 6.3 mph10.1 kmh 30.09 in1019.0 mb 0.00 in0.0 mm 0.00 in/hr0.0 mm/hr 0.00 in0.0 mm
04:24 PM 65.0°F18.3°C 28.9°F-1.7°C 26% 4.2 mph S6.8 kmh S 5.4 mph8.7 kmh 30.09 in1019.0 mb 0.00 in0.0 mm 0.00 in/hr0.0 mm/hr 0.00 in0.0 mm
04:20 PM 65.0°F18.3°C 28.9°F-1.7°C 26% 2.0 mph SW3.2 kmh SW 5.4 mph8.7 kmh 30.09 in1019.0 mb 0.00 in0.0 mm 0.00 in/hr0.0 mm/hr 0.00 in0.0 mm
04:15 PM 65.3°F18.5°C 29.3°F-1.5°C 26% 4.7 mph SW7.6 kmh SW 7.6 mph12.2 kmh 30.09 in1019.0 mb 0.00 in0.0 mm 0.00 in/hr0.0 mm/hr 0.00 in0.0 mm
04:10 PM 65.7°F18.7°C 28.5°F-1.9°C 25% 4.7 mph SW7.6 kmh SW 8.9 mph14.3 kmh 30.09 in1019.0 mb 0.00 in0.0 mm 0.00 in/hr0.0 mm/hr 0.00 in0.0 mm
04:05 PM 65.9°F18.8°C 28.7°F-1.8°C 25% 4.5 mph SW7.2 kmh SW 8.9 mph14.3 kmh 30.09 in1019.0 mb 0.00 in0.0 mm 0.00 in/hr0.0 mm/hr 0.00 in0.0 mm
04:00 PM 65.5°F18.6°C 29.3°F-1.5°C 26% 0.5 mph SE0.8 kmh SE 7.6 mph12.2 kmh 30.09 in1019.0 mb 0.00 in0.0 mm 0.00 in/hr0.0 mm/hr 0.00 in0.0 mm
03:54 PM 65.2°F18.4°C 29.1°F-1.6°C 26% 4.9 mph SW7.9 kmh SW 9.4 mph15.1 kmh 30.09 in1019.0 mb 0.00 in0.0 mm 0.00 in/hr0.0 mm/hr 0.00 in0.0 mm
03:49 PM 64.8°F18.2°C 28.7°F-1.8°C 26% 7.7 mph SSW12.4 kmh SSW 9.4 mph15.1 kmh 30.09 in1019.0 mb 0.00 in0.0 mm 0.00 in/hr0.0 mm/hr 0.00 in0.0 mm
03:44 PM 64.8°F18.2°C 28.7°F-1.8°C 26% 4.4 mph WSW7.1 kmh WSW 9.4 mph15.1 kmh 30.10 in1019.3 mb 0.00 in0.0 mm 0.00 in/hr0.0 mm/hr 0.00 in0.0 mm
03:39 PM 64.8°F18.2°C 27.7°F-2.4°C 25% 8.8 mph SW14.2 kmh SW 9.4 mph15.1 kmh 30.10 in1019.3 mb 0.00 in0.0 mm 0.00 in/hr0.0 mm/hr 0.00 in0.0 mm
03:34 PM 65.0°F18.3°C 28.9°F-1.7°C 26% 6.7 mph SSW10.8 kmh SSW 11.6 mph18.7 kmh 30.09 in1019.0 mb 0.00 in0.0 mm 0.00 in/hr0.0 mm/hr 0.00 in0.0 mm
03:29 PM 64.4°F18.0°C 28.4°F-2.0°C 26% 8.5 mph SW13.7 kmh SW 11.6 mph18.7 kmh 30.10 in1019.3 mb 0.00 in0.0 mm 0.00 in/hr0.0 mm/hr 0.00 in0.0 mm
03:24 PM 63.9°F17.7°C 27.0°F-2.8°C 25% 6.6 mph SW10.6 kmh SW 9.8 mph15.8 kmh 30.10 in1019.3 mb 0.00 in0.0 mm 0.00 in/hr0.0 mm/hr 0.00 in0.0 mm
03:19 PM 63.9°F17.7°C 27.0°F-2.8°C 25% 7.8 mph SW12.6 kmh SW 9.8 mph15.8 kmh 30.10 in1019.3 mb 0.00 in0.0 mm 0.00 in/hr0.0 mm/hr 0.00 in0.0 mm
03:14 PM 63.7°F17.6°C 27.8°F-2.3°C 26% 6.3 mph SW10.1 kmh SW 10.3 mph16.6 kmh 30.10 in1019.3 mb 0.00 in0.0 mm 0.00 in/hr0.0 mm/hr 0.00 in0.0 mm
03:09 PM 64.1°F17.8°C 27.2°F-2.7°C 25% 8.8 mph SW14.2 kmh SW 10.3 mph16.6 kmh 30.10 in1019.3 mb 0.00 in0.0 mm 0.00 in/hr0.0 mm/hr 0.00 in0.0 mm
03:04 PM 64.8°F18.2°C 27.7°F-2.4°C 25% 6.7 mph SW10.8 kmh SW 8.1 mph13.0 kmh 30.09 in1019.0 mb 0.00 in0.0 mm 0.00 in/hr0.0 mm/hr 0.00 in0.0 mm
02:59 PM 65.2°F18.4°C 28.1°F-2.2°C 25% 4.6 mph SW7.4 kmh SW 9.8 mph15.8 kmh 30.10 in1019.3 mb 0.00 in0.0 mm 0.00 in/hr0.0 mm/hr 0.00 in0.0 mm
02:54 PM 65.5°F18.6°C 28.4°F-2.0°C 25% 7.8 mph SW12.6 kmh SW 11.0 mph17.7 kmh 30.10 in1019.3 mb 0.00 in0.0 mm 0.00 in/hr0.0 mm/hr 0.00 in0.0 mm
02:49 PM 65.3°F18.5°C 28.3°F-2.1°C 25% 9.3 mph SW15.0 kmh SW 12.1 mph19.5 kmh 30.10 in1019.3 mb 0.00 in0.0 mm 0.00 in/hr0.0 mm/hr 0.00 in0.0 mm
02:44 PM 65.0°F18.3°C 27.9°F-2.3°C 25% 9.6 mph SW15.4 kmh SW 12.1 mph19.5 kmh 30.10 in1019.3 mb 0.00 in0.0 mm 0.00 in/hr0.0 mm/hr 0.00 in0.0 mm
02:39 PM 65.2°F18.4°C 28.1°F-2.2°C 25% 7.5 mph WNW12.1 kmh WNW 12.1 mph19.5 kmh 30.10 in1019.3 mb 0.00 in0.0 mm 0.00 in/hr0.0 mm/hr 0.00 in0.0 mm
02:34 PM 65.3°F18.5°C 29.3°F-1.5°C 26% 6.6 mph SW10.6 kmh SW 9.2 mph14.8 kmh 30.10 in1019.3 mb 0.00 in0.0 mm 0.00 in/hr0.0 mm/hr 0.00 in0.0 mm
02:29 PM 65.5°F18.6°C 29.3°F-1.5°C 26% 7.8 mph SW12.6 kmh SW 11.9 mph19.2 kmh 30.10 in1019.3 mb 0.00 in0.0 mm 0.00 in/hr0.0 mm/hr 0.00 in0.0 mm
02:24 PM 65.5°F18.6°C 29.3°F-1.5°C 26% 7.3 mph SW11.7 kmh SW 11.9 mph19.2 kmh 30.11 in1019.6 mb 0.00 in0.0 mm 0.00 in/hr0.0 mm/hr 0.00 in0.0 mm
02:19 PM 65.2°F18.4°C 31.1°F-0.5°C 28% 3.4 mph SW5.5 kmh SW 8.3 mph13.4 kmh 30.10 in1019.3 mb 0.00 in0.0 mm 0.00 in/hr0.0 mm/hr 0.00 in0.0 mm
02:14 PM 64.1°F17.8°C 28.2°F-2.1°C 26% 7.1 mph SSW11.4 kmh SSW 10.5 mph16.9 kmh 30.11 in1019.6 mb 0.00 in0.0 mm 0.00 in/hr0.0 mm/hr 0.00 in0.0 mm
02:09 PM 64.1°F17.8°C 27.2°F-2.7°C 25% 9.1 mph WSW14.6 kmh WSW 10.5 mph16.9 kmh 30.11 in1019.6 mb 0.00 in0.0 mm 0.00 in/hr0.0 mm/hr 0.00 in0.0 mm
02:04 PM 63.7°F17.6°C 27.8°F-2.3°C 26% 10.3 mph WSW16.6 kmh WSW 10.5 mph16.9 kmh 30.11 in1019.6 mb 0.00 in0.0 mm 0.00 in/hr0.0 mm/hr 0.00 in0.0 mm
01:58 PM 63.4°F17.4°C 26.6°F-3.0°C 25% 6.0 mph SW9.7 kmh SW 15.7 mph25.3 kmh 30.11 in1019.6 mb 0.00 in0.0 mm 0.00 in/hr0.0 mm/hr 0.00 in0.0 mm
01:53 PM 63.4°F17.4°C 26.6°F-3.0°C 25% 11.6 mph WSW18.7 kmh WSW 15.7 mph25.3 kmh 30.11 in1019.6 mb 0.00 in0.0 mm 0.00 in/hr0.0 mm/hr 0.00 in0.0 mm
01:48 PM 63.4°F17.4°C 27.6°F-2.4°C 26% 5.4 mph WSW8.7 kmh WSW 11.6 mph18.7 kmh 30.11 in1019.6 mb 0.00 in0.0 mm 0.00 in/hr0.0 mm/hr 0.00 in0.0 mm
01:43 PM 63.7°F17.6°C 26.8°F-2.9°C 25% 9.3 mph SW15.0 kmh SW 11.6 mph18.7 kmh 30.11 in1019.6 mb 0.00 in0.0 mm 0.00 in/hr0.0 mm/hr 0.00 in0.0 mm
01:38 PM 64.3°F17.9°C 29.3°F-1.5°C 27% 7.4 mph SW11.9 kmh SW 10.5 mph16.9 kmh 30.12 in1020.0 mb 0.00 in0.0 mm 0.00 in/hr0.0 mm/hr 0.00 in0.0 mm
01:34 PM 64.4°F18.0°C 30.4°F-0.9°C 28% 8.9 mph SW14.3 kmh SW 12.8 mph20.6 kmh 30.12 in1020.0 mb 0.00 in0.0 mm 0.00 in/hr0.0 mm/hr 0.00 in0.0 mm
01:29 PM 64.8°F18.2°C 31.8°F-0.1°C 29% 6.4 mph SW10.3 kmh SW 12.8 mph20.6 kmh 30.12 in1020.0 mb 0.00 in0.0 mm 0.00 in/hr0.0 mm/hr 0.00 in0.0 mm
01:24 PM 64.4°F18.0°C 31.4°F-0.3°C 29% 7.7 mph S12.4 kmh S 8.5 mph13.7 kmh 30.12 in1020.0 mb 0.00 in0.0 mm 0.00 in/hr0.0 mm/hr 0.00 in0.0 mm
01:19 PM 63.9°F17.7°C 30.0°F-1.1°C 28% 5.7 mph SW9.2 kmh SW 10.5 mph16.9 kmh 30.12 in1020.0 mb 0.00 in0.0 mm 0.00 in/hr0.0 mm/hr 0.00 in0.0 mm
01:14 PM 63.7°F17.6°C 28.8°F-1.8°C 27% 5.8 mph SW9.3 kmh SW 10.5 mph16.9 kmh 30.12 in1020.0 mb 0.00 in0.0 mm 0.00 in/hr0.0 mm/hr 0.00 in0.0 mm
01:09 PM 64.4°F18.0°C 31.4°F-0.3°C 29% 7.5 mph SW12.1 kmh SW 11.9 mph19.2 kmh 30.12 in1020.0 mb 0.00 in0.0 mm 0.00 in/hr0.0 mm/hr 0.00 in0.0 mm
01:04 PM 65.2°F18.4°C 33.0°F0.6°C 30% 8.3 mph SW13.4 kmh SW 11.9 mph19.2 kmh 30.13 in1020.3 mb 0.00 in0.0 mm 0.00 in/hr0.0 mm/hr 0.00 in0.0 mm
12:58 PM 65.5°F18.6°C 34.1°F1.2°C 31% 2.2 mph S3.5 kmh S 2.7 mph4.3 kmh 30.13 in1020.3 mb 0.00 in0.0 mm 0.00 in/hr0.0 mm/hr 0.00 in0.0 mm
12:53 PM 65.2°F18.4°C 34.5°F1.4°C 32% 1.3 mph SW2.1 kmh SW 4.5 mph7.2 kmh 30.13 in1020.3 mb 0.00 in0.0 mm 0.00 in/hr0.0 mm/hr 0.00 in0.0 mm
12:48 PM 64.6°F18.1°C 34.8°F1.6°C 33% 2.9 mph SSW4.7 kmh SSW 4.5 mph7.2 kmh 30.13 in1020.3 mb 0.00 in0.0 mm 0.00 in/hr0.0 mm/hr 0.00 in0.0 mm
12:43 PM 63.9°F17.7°C 34.1°F1.2°C 33% 0.4 mph SSE0.6 kmh SSE 2.5 mph4.0 kmh 30.13 in1020.3 mb 0.00 in0.0 mm 0.00 in/hr0.0 mm/hr 0.00 in0.0 mm
12:38 PM 63.2°F17.3°C 34.1°F1.2°C 34% 0.8 mph ESE1.3 kmh ESE 2.5 mph4.0 kmh 30.14 in1020.7 mb 0.00 in0.0 mm 0.00 in/hr0.0 mm/hr 0.00 in0.0 mm
12:33 PM 61.9°F16.6°C 34.5°F1.4°C 36% 2.0 mph SE3.2 kmh SE 2.5 mph4.0 kmh 30.14 in1020.7 mb 0.00 in0.0 mm 0.00 in/hr0.0 mm/hr 0.00 in0.0 mm
12:28 PM 60.8°F16.0°C 33.5°F0.8°C 36% 0.4 mph SSE0.6 kmh SSE 1.8 mph2.9 kmh 30.14 in1020.7 mb 0.00 in0.0 mm 0.00 in/hr0.0 mm/hr 0.00 in0.0 mm
12:23 PM 59.9°F15.5°C 32.7°F0.4°C 36% 0.2 mph SE0.3 kmh SE 2.2 mph3.5 kmh 30.14 in1020.7 mb 0.00 in0.0 mm 0.00 in/hr0.0 mm/hr 0.00 in0.0 mm
12:18 PM 59.9°F15.5°C 32.0°F0.0°C 35% 1.0 mph NW1.6 kmh NW 2.2 mph3.5 kmh 30.14 in1020.7 mb 0.00 in0.0 mm 0.00 in/hr0.0 mm/hr 0.00 in0.0 mm
12:13 PM 60.1°F15.6°C 33.6°F0.9°C 37% 0.4 mph NW0.6 kmh NW 2.7 mph4.3 kmh 30.15 in1021.0 mb 0.00 in0.0 mm 0.00 in/hr0.0 mm/hr 0.00 in0.0 mm
12:08 PM 59.6°F15.3°C 33.9°F1.1°C 38% 0.4 mph SE0.6 kmh SE 3.4 mph5.5 kmh 30.15 in1021.0 mb 0.00 in0.0 mm 0.00 in/hr0.0 mm/hr 0.00 in0.0 mm
12:04 PM 59.6°F15.3°C 33.9°F1.1°C 38% 2.9 mph WSW4.7 kmh WSW 4.0 mph6.4 kmh 30.15 in1021.0 mb 0.00 in0.0 mm 0.00 in/hr0.0 mm/hr 0.00 in0.0 mm
11:58 AM 59.4°F15.2°C 34.4°F1.3°C 39% 2.8 mph S4.5 kmh S 4.0 mph6.4 kmh 30.15 in1021.0 mb 0.00 in0.0 mm 0.00 in/hr0.0 mm/hr 0.00 in0.0 mm
11:53 AM 58.9°F14.9°C 34.6°F1.4°C 40% 0.4 mph WSW0.6 kmh WSW 3.6 mph5.8 kmh 30.16 in1021.3 mb 0.00 in0.0 mm 0.00 in/hr0.0 mm/hr 0.00 in0.0 mm
11:48 AM 58.1°F14.5°C 34.5°F1.4°C 41% 1.5 mph SE2.4 kmh SE 3.6 mph5.8 kmh 30.16 in1021.3 mb 0.00 in0.0 mm 0.00 in/hr0.0 mm/hr 0.00 in0.0 mm
11:43 AM 57.2°F14.0°C 34.3°F1.3°C 42% 1.9 mph SSW3.1 kmh SSW 2.9 mph4.7 kmh 30.16 in1021.3 mb 0.00 in0.0 mm 0.00 in/hr0.0 mm/hr 0.00 in0.0 mm
11:38 AM 56.5°F13.6°C 34.2°F1.2°C 43% 1.2 mph SW1.9 kmh SW 2.2 mph3.5 kmh 30.16 in1021.3 mb 0.00 in0.0 mm 0.00 in/hr0.0 mm/hr 0.00 in0.0 mm
11:33 AM 55.8°F13.2°C 33.5°F0.8°C 43% 1.0 mph SW1.6 kmh SW 2.0 mph3.2 kmh 30.16 in1021.3 mb 0.00 in0.0 mm 0.00 in/hr0.0 mm/hr 0.00 in0.0 mm
11:28 AM 55.1°F12.8°C 33.4°F0.8°C 44% 0.4 mph SSE0.6 kmh SSE 4.3 mph6.9 kmh 30.16 in1021.3 mb 0.00 in0.0 mm 0.00 in/hr0.0 mm/hr 0.00 in0.0 mm
11:23 AM 54.4°F12.4°C 33.3°F0.7°C 45% 2.3 mph SSE3.7 kmh SSE 4.3 mph6.9 kmh 30.16 in1021.3 mb 0.00 in0.0 mm 0.00 in/hr0.0 mm/hr 0.00 in0.0 mm
11:18 AM 53.6°F12.0°C 32.7°F0.4°C 45% 0.4 mph WSW0.6 kmh WSW 0.7 mph1.1 kmh 30.16 in1021.3 mb 0.00 in0.0 mm 0.00 in/hr0.0 mm/hr 0.00 in0.0 mm
11:13 AM 52.6°F11.4°C 32.2°F0.1°C 46% 0.5 mph SE0.8 kmh SE 2.0 mph3.2 kmh 30.16 in1021.3 mb 0.00 in0.0 mm 0.00 in/hr0.0 mm/hr 0.00 in0.0 mm
11:08 AM 52.0°F11.1°C 31.8°F-0.1°C 46% 0.7 mph NE1.1 kmh NE 3.6 mph5.8 kmh 30.16 in1021.3 mb 0.00 in0.0 mm 0.00 in/hr0.0 mm/hr 0.00 in0.0 mm
11:03 AM 51.3°F10.7°C 31.2°F-0.4°C 46% 3.0 mph E4.8 kmh E 3.6 mph5.8 kmh 30.16 in1021.3 mb 0.00 in0.0 mm 0.00 in/hr0.0 mm/hr 0.00 in0.0 mm
10:58 AM 50.8°F10.4°C 31.2°F-0.4°C 47% 0.4 mph S0.6 kmh S 1.8 mph2.9 kmh 30.16 in1021.3 mb 0.00 in0.0 mm 0.00 in/hr0.0 mm/hr 0.00 in0.0 mm
10:53 AM 49.9°F9.9°C 31.0°F-0.6°C 48% 0.3 mph SE0.5 kmh SE 1.8 mph2.9 kmh 30.17 in1021.7 mb 0.00 in0.0 mm 0.00 in/hr0.0 mm/hr 0.00 in0.0 mm
10:48 AM 49.3°F9.6°C 31.0°F-0.6°C 49% 0.2 mph NNW0.3 kmh NNW 1.8 mph2.9 kmh 30.17 in1021.7 mb 0.00 in0.0 mm 0.00 in/hr0.0 mm/hr 0.00 in0.0 mm
10:43 AM 48.8°F9.3°C 31.0°F-0.6°C 50% 1.0 mph N1.6 kmh N 1.6 mph2.6 kmh 30.17 in1021.7 mb 0.00 in0.0 mm 0.00 in/hr0.0 mm/hr 0.00 in0.0 mm
10:38 AM 47.9°F8.8°C 30.6°F-0.8°C 51% Calm Calm 1.3 mph2.1 kmh 30.16 in1021.3 mb 0.00 in0.0 mm 0.00 in/hr0.0 mm/hr 0.00 in0.0 mm
10:33 AM 47.0°F8.3°C 29.7°F-1.3°C 51% Calm Calm 3.1 mph5.0 kmh 30.17 in1021.7 mb 0.00 in0.0 mm 0.00 in/hr0.0 mm/hr 0.00 in0.0 mm
10:28 AM 46.4°F8.0°C 29.7°F-1.3°C 52% 1.5 mph ENE2.4 kmh ENE 4.3 mph6.9 kmh 30.17 in1021.7 mb 0.00 in0.0 mm 0.00 in/hr0.0 mm/hr 0.00 in0.0 mm
10:23 AM 45.9°F7.7°C 29.7°F-1.3°C 53% 3.1 mph NE5.0 kmh NE 4.3 mph6.9 kmh 30.16 in1021.3 mb 0.00 in0.0 mm 0.00 in/hr0.0 mm/hr 0.00 in0.0 mm
10:18 AM 45.2°F7.3°C 29.4°F-1.4°C 54% 1.8 mph ENE2.9 kmh ENE 3.4 mph5.5 kmh 30.17 in1021.7 mb 0.00 in0.0 mm 0.00 in/hr0.0 mm/hr 0.00 in0.0 mm
10:13 AM 44.6°F7.0°C 29.0°F-1.7°C 54% 0.8 mph ESE1.3 kmh ESE 1.3 mph2.1 kmh 30.17 in1021.7 mb 0.00 in0.0 mm 0.00 in/hr0.0 mm/hr 0.00 in0.0 mm
10:08 AM 43.7°F6.5°C 28.6°F-1.9°C 55% 0.8 mph ENE1.3 kmh ENE 3.1 mph5.0 kmh 30.17 in1021.7 mb 0.00 in0.0 mm 0.00 in/hr0.0 mm/hr 0.00 in0.0 mm
10:03 AM 43.0°F6.1°C 28.8°F-1.8°C 57% 0.2 mph NE0.3 kmh NE 3.1 mph5.0 kmh 30.17 in1021.7 mb 0.00 in0.0 mm 0.00 in/hr0.0 mm/hr 0.00 in0.0 mm
09:57 AM 42.1°F5.6°C 27.9°F-2.3°C 57% 1.5 mph ESE2.4 kmh ESE 3.1 mph5.0 kmh 30.17 in1021.7 mb 0.00 in0.0 mm 0.00 in/hr0.0 mm/hr 0.00 in0.0 mm
09:52 AM 41.4°F5.2°C 27.7°F-2.4°C 58% 0.7 mph NNW1.1 kmh NNW 2.9 mph4.7 kmh 30.17 in1021.7 mb 0.00 in0.0 mm 0.00 in/hr0.0 mm/hr 0.00 in0.0 mm
09:47 AM 40.7°F4.8°C 27.5°F-2.5°C 59% 1.1 mph E1.8 kmh E 2.5 mph4.0 kmh 30.17 in1021.7 mb 0.00 in0.0 mm 0.00 in/hr0.0 mm/hr 0.00 in0.0 mm
09:42 AM 40.0°F4.4°C 27.2°F-2.7°C 60% 1.3 mph E2.1 kmh E 3.6 mph5.8 kmh 30.17 in1021.7 mb 0.00 in0.0 mm 0.00 in/hr0.0 mm/hr 0.00 in0.0 mm
09:37 AM 39.2°F4.0°C 26.8°F-2.9°C 61% 1.6 mph ENE2.6 kmh ENE 3.6 mph5.8 kmh 30.18 in1022.0 mb 0.00 in0.0 mm 0.00 in/hr0.0 mm/hr 0.00 in0.0 mm
09:33 AM 38.9°F3.8°C 26.9°F-2.8°C 62% 0.7 mph NE1.1 kmh NE 1.8 mph2.9 kmh 30.18 in1022.0 mb 0.00 in0.0 mm 0.00 in/hr0.0 mm/hr 0.00 in0.0 mm
09:28 AM 38.2°F3.4°C 26.7°F-2.9°C 63% 1.1 mph ESE1.8 kmh ESE 4.5 mph7.2 kmh 30.18 in1022.0 mb 0.00 in0.0 mm 0.00 in/hr0.0 mm/hr 0.00 in0.0 mm
09:23 AM 37.4°F3.0°C 25.6°F-3.6°C 62% 2.4 mph E3.9 kmh E 4.5 mph7.2 kmh 30.17 in1021.7 mb 0.00 in0.0 mm 0.00 in/hr0.0 mm/hr 0.00 in0.0 mm
09:18 AM 36.4°F2.4°C 24.9°F-3.9°C 63% 1.1 mph NE1.8 kmh NE 2.5 mph4.0 kmh 30.17 in1021.7 mb 0.00 in0.0 mm 0.00 in/hr0.0 mm/hr 0.00 in0.0 mm
09:13 AM 35.6°F2.0°C 24.3°F-4.3°C 63% 1.4 mph NE2.3 kmh NE 2.5 mph4.0 kmh 30.17 in1021.7 mb 0.00 in0.0 mm 0.00 in/hr0.0 mm/hr 0.00 in0.0 mm
09:08 AM 34.7°F1.5°C 23.8°F-4.6°C 64% 2.5 mph ENE4.0 kmh ENE 2.5 mph4.0 kmh 30.18 in1022.0 mb 0.00 in0.0 mm 0.00 in/hr0.0 mm/hr 0.00 in0.0 mm
09:03 AM 33.8°F1.0°C 23.2°F-4.9°C 65% Calm Calm 0.4 mph0.6 kmh 30.17 in1021.7 mb 0.00 in0.0 mm 0.00 in/hr0.0 mm/hr 0.00 in0.0 mm
08:57 AM 33.1°F0.6°C 23.0°F-5.0°C 66% 0.2 mph ENE0.3 kmh ENE 1.3 mph2.1 kmh 30.18 in1022.0 mb 0.00 in0.0 mm 0.00 in/hr0.0 mm/hr 0.00 in0.0 mm
08:52 AM 32.2°F0.1°C 22.5°F-5.3°C 67% 1.3 mph E2.1 kmh E 1.3 mph2.1 kmh 30.17 in1021.7 mb 0.00 in0.0 mm 0.00 in/hr0.0 mm/hr 0.00 in0.0 mm
08:47 AM 31.3°F-0.4°C 21.2°F-6.0°C 66% Calm Calm 1.8 mph2.9 kmh 30.18 in1022.0 mb 0.00 in0.0 mm 0.00 in/hr0.0 mm/hr 0.00 in0.0 mm
08:42 AM 30.6°F-0.8°C 20.5°F-6.4°C 66% 0.2 mph 0.3 kmh 1.8 mph2.9 kmh 30.17 in1021.7 mb 0.00 in0.0 mm 0.00 in/hr0.0 mm/hr 0.00 in0.0 mm
08:37 AM 30.1°F-1.1°C 20.3°F-6.5°C 67% 0.2 mph NE0.3 kmh NE 0.4 mph0.6 kmh 30.17 in1021.7 mb 0.00 in0.0 mm 0.00 in/hr0.0 mm/hr 0.00 in0.0 mm
08:32 AM 29.2°F-1.6°C 19.5°F-6.9°C 67% 0.4 mph NE0.6 kmh NE 1.8 mph2.9 kmh 30.17 in1021.7 mb 0.00 in0.0 mm 0.00 in/hr0.0 mm/hr 0.00 in0.0 mm
08:27 AM 28.4°F-2.0°C 19.3°F-7.1°C 68% 0.7 mph NE1.1 kmh NE 1.8 mph2.9 kmh 30.17 in1021.7 mb 0.00 in0.0 mm 0.00 in/hr0.0 mm/hr 0.00 in0.0 mm
08:22 AM 27.7°F-2.4°C 18.9°F-7.3°C 69% 0.7 mph NE1.1 kmh NE 1.6 mph2.6 kmh 30.17 in1021.7 mb 0.00 in0.0 mm 0.00 in/hr0.0 mm/hr 0.00 in0.0 mm
08:17 AM 27.0°F-2.8°C 18.2°F-7.7°C 69% 1.0 mph NNE1.6 kmh NNE 3.8 mph6.1 kmh 30.17 in1021.7 mb 0.00 in0.0 mm 0.00 in/hr0.0 mm/hr 0.00 in0.0 mm
08:12 AM 26.1°F-3.3°C 17.6°F-8.0°C 70% 1.9 mph NE3.1 kmh NE 3.8 mph6.1 kmh 30.17 in1021.7 mb 0.00 in0.0 mm 0.00 in/hr0.0 mm/hr 0.00 in0.0 mm
08:07 AM 25.2°F-3.8°C 17.1°F-8.3°C 71% 2.0 mph ENE3.2 kmh ENE 3.4 mph5.5 kmh 30.17 in1021.7 mb 0.00 in0.0 mm 0.00 in/hr0.0 mm/hr 0.00 in0.0 mm
08:03 AM 24.5°F-4.2°C 16.0°F-8.9°C 70% 1.0 mph ENE1.6 kmh ENE 2.5 mph4.0 kmh 30.17 in1021.7 mb 0.00 in0.0 mm 0.00 in/hr0.0 mm/hr 0.00 in0.0 mm
07:57 AM 23.8°F-4.6°C 15.4°F-9.2°C 70% 2.0 mph NE3.2 kmh NE 2.0 mph3.2 kmh 30.17 in1021.7 mb 0.00 in0.0 mm 0.00 in/hr0.0 mm/hr 0.00 in0.0 mm
07:52 AM 23.0°F-5.0°C 14.4°F-9.8°C 69% 0.8 mph ENE1.3 kmh ENE 1.3 mph2.1 kmh 30.17 in1021.7 mb 0.00 in0.0 mm 0.00 in/hr0.0 mm/hr 0.00 in0.0 mm
07:47 AM 22.5°F-5.3°C 13.9°F-10.1°C 69% Calm Calm 0.7 mph1.1 kmh 30.17 in1021.7 mb 0.00 in0.0 mm 0.00 in/hr0.0 mm/hr 0.00 in0.0 mm
07:42 AM 22.3°F-5.4°C 13.7°F-10.2°C 69% 0.3 mph NNE0.5 kmh NNE 4.0 mph6.4 kmh 30.17 in1021.7 mb 0.00 in0.0 mm 0.00 in/hr0.0 mm/hr 0.00 in0.0 mm
07:37 AM 22.0°F-5.6°C 13.3°F-10.4°C 69% 0.7 mph 1.1 kmh 4.3 mph6.9 kmh 30.16 in1021.3 mb 0.00 in0.0 mm 0.00 in/hr0.0 mm/hr 0.00 in0.0 mm
07:32 AM 21.6°F-5.8°C 12.6°F-10.8°C 68% 4.2 mph NNE6.8 kmh NNE 4.3 mph6.9 kmh 30.16 in1021.3 mb 0.00 in0.0 mm 0.00 in/hr0.0 mm/hr 0.00 in0.0 mm
07:27 AM 21.6°F-5.8°C 12.2°F-11.0°C 67% 1.5 mph NNE2.4 kmh NNE 1.8 mph2.9 kmh 30.16 in1021.3 mb 0.00 in0.0 mm 0.00 in/hr0.0 mm/hr 0.00 in0.0 mm
07:22 AM 21.8°F-5.7°C 12.4°F-10.9°C 67% 0.4 mph NNE0.6 kmh NNE 1.8 mph2.9 kmh 30.16 in1021.3 mb 0.00 in0.0 mm 0.00 in/hr0.0 mm/hr 0.00 in0.0 mm
07:17 AM 21.8°F-5.7°C 12.8°F-10.7°C 68% 0.3 mph NNE0.5 kmh NNE 0.4 mph0.6 kmh 30.16 in1021.3 mb 0.00 in0.0 mm 0.00 in/hr0.0 mm/hr 0.00 in0.0 mm
07:12 AM 22.0°F-5.6°C 13.0°F-10.6°C 68% Calm Calm 0.2 mph0.3 kmh 30.15 in1021.0 mb 0.00 in0.0 mm 0.00 in/hr0.0 mm/hr 0.00 in0.0 mm
07:07 AM 22.0°F-5.6°C 13.0°F-10.6°C 68% Calm Calm 0.2 mph0.3 kmh 30.15 in1021.0 mb 0.00 in0.0 mm 0.00 in/hr0.0 mm/hr 0.00 in0.0 mm
07:02 AM 22.1°F-5.5°C 13.1°F-10.5°C 68% Calm Calm 1.1 mph1.8 kmh 30.15 in1021.0 mb 0.00 in0.0 mm 0.00 in/hr0.0 mm/hr 0.00 in0.0 mm
06:57 AM 22.1°F-5.5°C 13.5°F-10.3°C 69% Calm Calm 2.5 mph4.0 kmh 30.15 in1021.0 mb 0.00 in0.0 mm 0.00 in/hr0.0 mm/hr 0.00 in0.0 mm
06:52 AM 22.1°F-5.5°C 13.1°F-10.5°C 68% 1.8 mph E2.9 kmh E 2.5 mph4.0 kmh 30.15 in1021.0 mb 0.00 in0.0 mm 0.00 in/hr0.0 mm/hr 0.00 in0.0 mm
06:47 AM 22.3°F-5.4°C 13.3°F-10.4°C 68% Calm Calm -- 30.15 in1021.0 mb 0.00 in0.0 mm 0.00 in/hr0.0 mm/hr 0.00 in0.0 mm
06:42 AM 22.5°F-5.3°C 13.5°F-10.3°C 68% Calm Calm 1.6 mph2.6 kmh 30.15 in1021.0 mb 0.00 in0.0 mm 0.00 in/hr0.0 mm/hr 0.00 in0.0 mm
06:37 AM 22.7°F-5.2°C 13.7°F-10.2°C 68% Calm Calm 1.6 mph2.6 kmh 30.15 in1021.0 mb 0.00 in0.0 mm 0.00 in/hr0.0 mm/hr 0.00 in0.0 mm
06:32 AM 22.5°F-5.3°C 13.1°F-10.5°C 67% Calm Calm 1.1 mph1.8 kmh 30.14 in1020.7 mb 0.00 in0.0 mm 0.00 in/hr0.0 mm/hr 0.00 in0.0 mm
06:27 AM 22.7°F-5.2°C 13.0°F-10.6°C 66% 0.4 mph NNE0.6 kmh NNE 1.1 mph1.8 kmh 30.15 in1021.0 mb 0.00 in0.0 mm 0.00 in/hr0.0 mm/hr 0.00 in0.0 mm
06:22 AM 22.5°F-5.3°C 12.8°F-10.7°C 66% 0.3 mph NE0.5 kmh NE 2.5 mph4.0 kmh 30.14 in1020.7 mb 0.00 in0.0 mm 0.00 in/hr0.0 mm/hr 0.00 in0.0 mm
06:17 AM 22.5°F-5.3°C 12.8°F-10.7°C 66% 2.3 mph 3.7 kmh 2.5 mph4.0 kmh 30.14 in1020.7 mb 0.00 in0.0 mm 0.00 in/hr0.0 mm/hr 0.00 in0.0 mm
06:12 AM 22.7°F-5.2°C 13.0°F-10.6°C 66% Calm Calm 2.0 mph3.2 kmh 30.14 in1020.7 mb 0.00 in0.0 mm 0.00 in/hr0.0 mm/hr 0.00 in0.0 mm
06:07 AM 22.9°F-5.1°C 13.1°F-10.5°C 66% Calm Calm 3.4 mph5.5 kmh 30.14 in1020.7 mb 0.00 in0.0 mm 0.00 in/hr0.0 mm/hr 0.00 in0.0 mm
06:02 AM 23.4°F-4.8°C 13.7°F-10.2°C 66% 3.0 mph 4.8 kmh 3.4 mph5.5 kmh 30.13 in1020.3 mb 0.00 in0.0 mm 0.00 in/hr0.0 mm/hr 0.00 in0.0 mm
05:56 AM 23.4°F-4.8°C 13.7°F-10.2°C 66% 2.6 mph NE4.2 kmh NE 2.7 mph4.3 kmh 30.13 in1020.3 mb 0.00 in0.0 mm 0.00 in/hr0.0 mm/hr 0.00 in0.0 mm
05:51 AM 23.4°F-4.8°C 13.7°F-10.2°C 66% 2.2 mph N3.5 kmh N 4.7 mph7.6 kmh 30.13 in1020.3 mb 0.00 in0.0 mm 0.00 in/hr0.0 mm/hr 0.00 in0.0 mm
05:47 AM 23.2°F-4.9°C 13.2°F-10.4°C 65% 2.2 mph N3.5 kmh N 4.7 mph7.6 kmh 30.13 in1020.3 mb 0.00 in0.0 mm 0.00 in/hr0.0 mm/hr 0.00 in0.0 mm
05:42 AM 23.4°F-4.8°C 13.0°F-10.6°C 64% 4.5 mph 7.2 kmh 4.7 mph7.6 kmh 30.13 in1020.3 mb 0.00 in0.0 mm 0.00 in/hr0.0 mm/hr 0.00 in0.0 mm
05:37 AM 23.6°F-4.7°C 13.2°F-10.4°C 64% 3.0 mph 4.8 kmh 3.4 mph5.5 kmh 30.13 in1020.3 mb 0.00 in0.0 mm 0.00 in/hr0.0 mm/hr 0.00 in0.0 mm
05:32 AM 23.9°F-4.5°C 13.2°F-10.4°C 63% 2.7 mph 4.3 kmh 2.7 mph4.3 kmh 30.13 in1020.3 mb 0.00 in0.0 mm 0.00 in/hr0.0 mm/hr 0.00 in0.0 mm
05:27 AM 24.1°F-4.4°C 13.3°F-10.4°C 63% 1.9 mph NNE3.1 kmh NNE 3.6 mph5.8 kmh 30.13 in1020.3 mb 0.00 in0.0 mm 0.00 in/hr0.0 mm/hr 0.00 in0.0 mm
05:22 AM 24.1°F-4.4°C 13.3°F-10.4°C 63% 2.5 mph N4.0 kmh N 4.0 mph6.4 kmh 30.13 in1020.3 mb 0.00 in0.0 mm 0.00 in/hr0.0 mm/hr 0.00 in0.0 mm
05:17 AM 24.1°F-4.4°C 13.3°F-10.4°C 63% 3.5 mph 5.6 kmh 4.0 mph6.4 kmh 30.13 in1020.3 mb 0.00 in0.0 mm 0.00 in/hr0.0 mm/hr 0.00 in0.0 mm
05:12 AM 24.5°F-4.2°C 14.0°F-10.0°C 64% 1.0 mph NNE1.6 kmh NNE 5.1 mph8.2 kmh 30.13 in1020.3 mb 0.00 in0.0 mm 0.00 in/hr0.0 mm/hr 0.00 in0.0 mm
05:07 AM 24.5°F-4.2°C 14.3°F-9.8°C 65% 3.9 mph E6.3 kmh E 5.8 mph9.3 kmh 30.13 in1020.3 mb 0.00 in0.0 mm 0.00 in/hr0.0 mm/hr 0.00 in0.0 mm
05:02 AM 24.5°F-4.2°C 14.0°F-10.0°C 64% 5.6 mph E9.0 kmh E 5.8 mph9.3 kmh 30.13 in1020.3 mb 0.00 in0.0 mm 0.00 in/hr0.0 mm/hr 0.00 in0.0 mm
04:56 AM 24.7°F-4.1°C 13.8°F-10.1°C 63% 4.0 mph E6.4 kmh E 4.0 mph6.4 kmh 30.13 in1020.3 mb 0.00 in0.0 mm 0.00 in/hr0.0 mm/hr 0.00 in0.0 mm
04:51 AM 24.8°F-4.0°C 14.3°F-9.8°C 64% 2.9 mph E4.7 kmh E 4.0 mph6.4 kmh 30.13 in1020.3 mb 0.00 in0.0 mm 0.00 in/hr0.0 mm/hr 0.00 in0.0 mm
04:46 AM 24.8°F-4.0°C 14.0°F-10.0°C 63% 2.3 mph E3.7 kmh E 4.7 mph7.6 kmh 30.13 in1020.3 mb 0.00 in0.0 mm 0.00 in/hr0.0 mm/hr 0.00 in0.0 mm
04:41 AM 25.0°F-3.9°C 14.1°F-9.9°C 63% 4.1 mph E6.6 kmh E 4.7 mph7.6 kmh 30.13 in1020.3 mb 0.00 in0.0 mm 0.00 in/hr0.0 mm/hr 0.00 in0.0 mm
04:36 AM 25.4°F-3.7°C 14.1°F-9.9°C 62% 0.3 mph E0.5 kmh E 0.4 mph0.6 kmh 30.13 in1020.3 mb 0.00 in0.0 mm 0.00 in/hr0.0 mm/hr 0.00 in0.0 mm
04:31 AM 25.6°F-3.6°C 14.3°F-9.8°C 62% Calm Calm 1.1 mph1.8 kmh 30.13 in1020.3 mb 0.00 in0.0 mm 0.00 in/hr0.0 mm/hr 0.00 in0.0 mm
04:26 AM 25.6°F-3.6°C 14.3°F-9.8°C 62% 0.7 mph 1.1 kmh 1.1 mph1.8 kmh 30.13 in1020.3 mb 0.00 in0.0 mm 0.00 in/hr0.0 mm/hr 0.00 in0.0 mm
04:21 AM 25.7°F-3.5°C 14.1°F-9.9°C 61% 0.4 mph NNE0.6 kmh NNE 1.6 mph2.6 kmh 30.13 in1020.3 mb 0.00 in0.0 mm 0.00 in/hr0.0 mm/hr 0.00 in0.0 mm
04:17 AM 25.7°F-3.5°C 14.1°F-9.9°C 61% 0.4 mph NNE0.6 kmh NNE 1.8 mph2.9 kmh 30.12 in1020.0 mb 0.00 in0.0 mm 0.00 in/hr0.0 mm/hr 0.00 in0.0 mm
04:12 AM 25.6°F-3.6°C 14.0°F-10.0°C 61% 1.3 mph NNE2.1 kmh NNE 1.8 mph2.9 kmh 30.12 in1020.0 mb 0.00 in0.0 mm 0.00 in/hr0.0 mm/hr 0.00 in0.0 mm
04:07 AM 25.6°F-3.6°C 14.0°F-10.0°C 61% 1.6 mph 2.6 kmh 1.8 mph2.9 kmh 30.12 in1020.0 mb 0.00 in0.0 mm 0.00 in/hr0.0 mm/hr 0.00 in0.0 mm
04:02 AM 25.7°F-3.5°C 14.1°F-9.9°C 61% 0.2 mph NNE0.3 kmh NNE 0.2 mph0.3 kmh 30.12 in1020.0 mb 0.00 in0.0 mm 0.00 in/hr0.0 mm/hr 0.00 in0.0 mm
03:56 AM 25.9°F-3.4°C 14.7°F-9.6°C 62% Calm Calm -- 30.12 in1020.0 mb 0.00 in0.0 mm 0.00 in/hr0.0 mm/hr 0.00 in0.0 mm
03:51 AM 25.9°F-3.4°C 14.7°F-9.6°C 62% Calm Calm -- 30.12 in1020.0 mb 0.00 in0.0 mm 0.00 in/hr0.0 mm/hr 0.00 in0.0 mm
03:46 AM 26.1°F-3.3°C 14.8°F-9.6°C 62% Calm Calm 0.2 mph0.3 kmh 30.12 in1020.0 mb 0.00 in0.0 mm 0.00 in/hr0.0 mm/hr 0.00 in0.0 mm
03:41 AM 26.3°F-3.2°C 14.9°F-9.5°C 62% 0.2 mph 0.3 kmh 0.4 mph0.6 kmh 30.12 in1020.0 mb 0.00 in0.0 mm 0.00 in/hr0.0 mm/hr 0.00 in0.0 mm
03:36 AM 26.3°F-3.2°C 14.9°F-9.5°C 62% 0.4 mph ENE0.6 kmh ENE 0.4 mph0.6 kmh 30.12 in1020.0 mb 0.00 in0.0 mm 0.00 in/hr0.0 mm/hr 0.00 in0.0 mm
03:31 AM 26.5°F-3.1°C 15.1°F-9.4°C 62% 0.2 mph NNE0.3 kmh NNE 1.3 mph2.1 kmh 30.12 in1020.0 mb 0.00 in0.0 mm 0.00 in/hr0.0 mm/hr 0.00 in0.0 mm
03:26 AM 26.6°F-3.0°C 15.3°F-9.3°C 62% 0.3 mph NNE0.5 kmh NNE 3.6 mph5.8 kmh 30.12 in1020.0 mb 0.00 in0.0 mm 0.00 in/hr0.0 mm/hr 0.00 in0.0 mm
03:21 AM 26.8°F-2.9°C 15.8°F-9.0°C 63% 1.7 mph NNE2.7 kmh NNE 4.9 mph7.9 kmh 30.12 in1020.0 mb 0.00 in0.0 mm 0.00 in/hr0.0 mm/hr 0.00 in0.0 mm
03:16 AM 26.6°F-3.0°C 15.3°F-9.3°C 62% 4.5 mph NE7.2 kmh NE 4.9 mph7.9 kmh 30.12 in1020.0 mb 0.00 in0.0 mm 0.00 in/hr0.0 mm/hr 0.00 in0.0 mm
03:11 AM 26.3°F-3.2°C 14.9°F-9.5°C 62% 4.6 mph ENE7.4 kmh ENE 4.9 mph7.9 kmh 30.12 in1020.0 mb 0.00 in0.0 mm 0.00 in/hr0.0 mm/hr 0.00 in0.0 mm
03:06 AM 26.5°F-3.1°C 14.8°F-9.6°C 61% 0.8 mph NE1.3 kmh NE 1.1 mph1.8 kmh 30.12 in1020.0 mb 0.00 in0.0 mm 0.00 in/hr0.0 mm/hr 0.00 in0.0 mm
03:01 AM 26.6°F-3.0°C 15.3°F-9.3°C 62% 0.6 mph NNE1.0 kmh NNE 3.6 mph5.8 kmh 30.12 in1020.0 mb 0.00 in0.0 mm 0.00 in/hr0.0 mm/hr 0.00 in0.0 mm
02:56 AM 26.8°F-2.9°C 15.8°F-9.0°C 63% 1.6 mph E2.6 kmh E 3.8 mph6.1 kmh 30.12 in1020.0 mb 0.00 in0.0 mm 0.00 in/hr0.0 mm/hr 0.00 in0.0 mm
02:51 AM 26.8°F-2.9°C 15.8°F-9.0°C 63% 3.0 mph E4.8 kmh E 4.0 mph6.4 kmh 30.12 in1020.0 mb 0.00 in0.0 mm 0.00 in/hr0.0 mm/hr 0.00 in0.0 mm
02:46 AM 26.6°F-3.0°C 15.7°F-9.1°C 63% 3.9 mph ENE6.3 kmh ENE 4.0 mph6.4 kmh 30.12 in1020.0 mb 0.00 in0.0 mm 0.00 in/hr0.0 mm/hr 0.00 in0.0 mm
02:41 AM 26.5°F-3.1°C 15.1°F-9.4°C 62% 3.7 mph E6.0 kmh E 4.0 mph6.4 kmh 30.12 in1020.0 mb 0.00 in0.0 mm 0.00 in/hr0.0 mm/hr 0.00 in0.0 mm
02:36 AM 26.6°F-3.0°C 15.3°F-9.3°C 62% Calm Calm 3.4 mph5.5 kmh 30.12 in1020.0 mb 0.00 in0.0 mm 0.00 in/hr0.0 mm/hr 0.00 in0.0 mm
02:31 AM 26.6°F-3.0°C 15.3°F-9.3°C 62% 0.6 mph ENE1.0 kmh ENE 4.9 mph7.9 kmh 30.12 in1020.0 mb 0.00 in0.0 mm 0.00 in/hr0.0 mm/hr 0.00 in0.0 mm
02:26 AM 26.5°F-3.1°C 15.1°F-9.4°C 62% 3.8 mph E6.1 kmh E 5.4 mph8.7 kmh 30.12 in1020.0 mb 0.00 in0.0 mm 0.00 in/hr0.0 mm/hr 0.00 in0.0 mm
02:21 AM 26.5°F-3.1°C 15.1°F-9.4°C 62% 5.1 mph ENE8.2 kmh ENE 5.4 mph8.7 kmh 30.12 in1020.0 mb 0.00 in0.0 mm 0.00 in/hr0.0 mm/hr 0.00 in0.0 mm
02:16 AM 26.8°F-2.9°C 14.8°F-9.6°C 60% Calm Calm 0.9 mph1.4 kmh 30.12 in1020.0 mb 0.00 in0.0 mm 0.00 in/hr0.0 mm/hr 0.00 in0.0 mm
02:11 AM 27.0°F-2.8°C 14.9°F-9.5°C 60% 0.2 mph NNE0.3 kmh NNE 0.9 mph1.4 kmh 30.11 in1019.6 mb 0.00 in0.0 mm 0.00 in/hr0.0 mm/hr 0.00 in0.0 mm
02:06 AM 27.0°F-2.8°C 14.9°F-9.5°C 60% 0.3 mph SE0.5 kmh SE 3.1 mph5.0 kmh 30.11 in1019.6 mb 0.00 in0.0 mm 0.00 in/hr0.0 mm/hr 0.00 in0.0 mm
02:01 AM 27.0°F-2.8°C 14.9°F-9.5°C 60% 1.3 mph 2.1 kmh 3.8 mph6.1 kmh 30.11 in1019.6 mb 0.00 in0.0 mm 0.00 in/hr0.0 mm/hr 0.00 in0.0 mm
01:55 AM 26.8°F-2.9°C 14.3°F-9.8°C 59% 3.6 mph 5.8 kmh 3.8 mph6.1 kmh 30.11 in1019.6 mb 0.00 in0.0 mm 0.00 in/hr0.0 mm/hr 0.00 in0.0 mm
01:51 AM 26.6°F-3.0°C 14.1°F-9.9°C 59% 2.9 mph NNE4.7 kmh NNE 2.9 mph4.7 kmh 30.11 in1019.6 mb 0.00 in0.0 mm 0.00 in/hr0.0 mm/hr 0.00 in0.0 mm
01:46 AM 26.5°F-3.1°C 14.4°F-9.8°C 60% Calm Calm 1.1 mph1.8 kmh 30.11 in1019.6 mb 0.00 in0.0 mm 0.00 in/hr0.0 mm/hr 0.00 in0.0 mm
01:41 AM 26.5°F-3.1°C 14.8°F-9.6°C 61% 0.4 mph E0.6 kmh E 2.0 mph3.2 kmh 30.11 in1019.6 mb 0.00 in0.0 mm 0.00 in/hr0.0 mm/hr 0.00 in0.0 mm
01:36 AM 26.3°F-3.2°C 14.2°F-9.9°C 60% 0.8 mph E1.3 kmh E 2.0 mph3.2 kmh 30.11 in1019.6 mb 0.00 in0.0 mm 0.00 in/hr0.0 mm/hr 0.00 in0.0 mm
01:31 AM 26.5°F-3.1°C 13.6°F-10.2°C 58% 1.6 mph E2.6 kmh E 1.8 mph2.9 kmh 30.11 in1019.6 mb 0.00 in0.0 mm 0.00 in/hr0.0 mm/hr 0.00 in0.0 mm
01:26 AM 26.5°F-3.1°C 13.6°F-10.2°C 58% 1.5 mph N2.4 kmh N 1.6 mph2.6 kmh 30.10 in1019.3 mb 0.00 in0.0 mm 0.00 in/hr0.0 mm/hr 0.00 in0.0 mm
01:21 AM 26.5°F-3.1°C 13.6°F-10.2°C 58% Calm Calm 3.4 mph5.5 kmh 30.10 in1019.3 mb 0.00 in0.0 mm 0.00 in/hr0.0 mm/hr 0.00 in0.0 mm
01:16 AM 26.6°F-3.0°C 13.3°F-10.4°C 57% 2.3 mph 3.7 kmh 3.4 mph5.5 kmh 30.10 in1019.3 mb 0.00 in0.0 mm 0.00 in/hr0.0 mm/hr 0.00 in0.0 mm
01:11 AM 27.0°F-2.8°C 13.7°F-10.2°C 57% 1.7 mph 2.7 kmh 1.8 mph2.9 kmh 30.10 in1019.3 mb 0.00 in0.0 mm 0.00 in/hr0.0 mm/hr 0.00 in0.0 mm
01:06 AM 27.4°F-2.6°C 14.5°F-9.7°C 58% 0.4 mph 0.6 kmh 4.5 mph7.2 kmh 30.10 in1019.3 mb 0.00 in0.0 mm 0.00 in/hr0.0 mm/hr 0.00 in0.0 mm
01:01 AM 27.4°F-2.6°C 14.0°F-10.0°C 57% 2.5 mph NE4.0 kmh NE 4.5 mph7.2 kmh 30.10 in1019.3 mb 0.00 in0.0 mm 0.00 in/hr0.0 mm/hr 0.00 in0.0 mm
12:55 AM 27.5°F-2.5°C 13.9°F-10.1°C 56% 2.8 mph NNE4.5 kmh NNE 3.8 mph6.1 kmh 30.10 in1019.3 mb 0.00 in0.0 mm 0.00 in/hr0.0 mm/hr 0.00 in0.0 mm
12:50 AM 27.5°F-2.5°C 13.9°F-10.1°C 56% 3.0 mph E4.8 kmh E 3.1 mph5.0 kmh 30.10 in1019.3 mb 0.00 in0.0 mm 0.00 in/hr0.0 mm/hr 0.00 in0.0 mm
12:45 AM 28.1°F-2.2°C 14.0°F-10.0°C 55% 1.4 mph NE2.3 kmh NE 2.2 mph3.5 kmh 30.10 in1019.3 mb 0.00 in0.0 mm 0.00 in/hr0.0 mm/hr 0.00 in0.0 mm
12:40 AM 28.4°F-2.0°C 14.3°F-9.8°C 55% 0.2 mph 0.3 kmh 1.1 mph1.8 kmh 30.10 in1019.3 mb 0.00 in0.0 mm 0.00 in/hr0.0 mm/hr 0.00 in0.0 mm
12:35 AM 28.8°F-1.8°C 14.7°F-9.6°C 55% Calm Calm 1.8 mph2.9 kmh 30.10 in1019.3 mb 0.00 in0.0 mm 0.00 in/hr0.0 mm/hr 0.00 in0.0 mm
12:30 AM 29.2°F-1.6°C 14.6°F-9.7°C 54% 1.5 mph SSE2.4 kmh SSE 1.8 mph2.9 kmh 30.10 in1019.3 mb 0.00 in0.0 mm 0.00 in/hr0.0 mm/hr 0.00 in0.0 mm
12:26 AM 29.5°F-1.4°C 15.3°F-9.3°C 55% Calm Calm 2.5 mph4.0 kmh 30.10 in1019.3 mb 0.00 in0.0 mm 0.00 in/hr0.0 mm/hr 0.00 in0.0 mm
12:21 AM 29.9°F-1.2°C 15.6°F-9.1°C 55% Calm Calm 2.5 mph4.0 kmh 30.10 in1019.3 mb 0.00 in0.0 mm 0.00 in/hr0.0 mm/hr 0.00 in0.0 mm
12:16 AM 30.2°F-1.0°C 15.9°F-8.9°C 55% 1.3 mph ENE2.1 kmh ENE 4.0 mph6.4 kmh 30.09 in1019.0 mb 0.00 in0.0 mm 0.00 in/hr0.0 mm/hr 0.00 in0.0 mm
12:11 AM 30.4°F-0.9°C 16.1°F-8.8°C 55% 2.8 mph ESE4.5 kmh ESE 6.0 mph9.7 kmh 30.09 in1019.0 mb 0.00 in0.0 mm 0.00 in/hr0.0 mm/hr 0.00 in0.0 mm
12:06 AM 30.6°F-0.8°C 15.8°F-9.0°C 54% 4.3 mph NE6.9 kmh NE 6.0 mph9.7 kmh 30.09 in1019.0 mb 0.00 in0.0 mm 0.00 in/hr0.0 mm/hr 0.00 in0.0 mm
12:01 AM 31.0°F-0.6°C 16.2°F-8.8°C 54% 3.7 mph 6.0 kmh 5.4 mph8.7 kmh 30.09 in1019.0 mb 0.00 in0.0 mm 0.00 in/hr0.0 mm/hr 0.00 in0.0 mm